Resultados de RENTAL SMF KART / PROVA 8 - 21:30
KARTODROMO INTERNACIONAL GRANJA VIANA KGV RACE TRACKS - CIRCUITO 109
Resultados de RENTAL - SMF KART / PROVA 8 - 21:30


Pos No. Nome Classe Comentários Pontos Voltas Total Tempo Melhor Tempo na volta. Diff Espaço 2a melhor Melhor Veloc.
1 040 MARCOS BARONE RENTAL 0 34 25:37.459 42.099 8 42.103 61,997
2 032 ANDRE RELVAS RENTAL 0 34 25:43.471 42.193 8 6.012 6.012 42.319 61,859
3 011 SERGIO GONÇALVES RENTAL 0 34 25:43.739 42.165 30 6.280 0.268 42.182 61,900
4 038 KEKA TEIXEIRA RENTAL 0 34 25:47.060 41.807 23 9.601 3.321 41.908 62,430
5 018 EDUARDO RECHE RENTAL 0 34 25:48.097 42.243 10 10.638 1.037 42.527 61,785
6 001 DANILO MENOSSI RENTAL 0 34 25:54.174 42.294 23 16.715 6.077 42.387 61,711
7 019 ADRIANO ALVES RENTAL 0 34 25:54.460 42.293 14 17.001 0.286 42.388 61,712
8 030 GARDENA RENTAL 0 34 25:55.594 42.214 23 18.135 1.134 42.260 61,828
9 012 ROBERTO OLIVEIRA RENTAL 0 34 25:57.154 42.266 22 19.695 1.560 42.340 61,752
10 023 LUIZ RUBELLO RENTAL 0 34 25:57.902 42.398 11 20.443 0.748 42.430 61,560
11 017 PAULO TORRES RENTAL 0 34 25:58.523 42.121 25 21.064 0.621 42.134 61,964
12 016 EDER AYRES RENTAL 0 34 26:03.195 42.786 29 25.736 4.672 42.795 61,001
13 020 LUIZ RECHE RENTAL 0 34 26:04.112 42.763 30 26.653 0.917 42.786 61,034
14 035 LAERCIO PEREIRA RENTAL 0 33 25:40.208 42.984 27 1 Volta 1 Volta 43.043 60,720
15 025 DILSON SADAN RENTAL 0 33 25:40.254 42.815 32 1 Volta 0.046 43.040 60,960
16 031 JOHNNY FERREIRA RENTAL TP 0 33 25:40.375 42.267 8 1 Volta 0.121 42.347 61,750
17 002 AUGUSTO CARDOSO RENTAL 0 33 25:43.990 43.261 21 1 Volta 3.615 43.333 60,331
18 013 EDSON RECHE RENTAL 0 33 25:45.156 42.798 18 1 Volta 1.166 42.814 60,984
19 005 ARNALDO MARQUES RENTAL 0 33 25:45.420 42.928 21 1 Volta 0.264 42.929 60,799
20 010 GERSON SOMOSE RENTAL 0 33 25:56.558 42.852 18 1 Volta 11.138 43.059 60,907
21 026 ALEXANDRE FAZANO RENTAL 0 33 25:57.416 43.790 6 1 Volta 0.858 43.832 59,603
22 006 MARIO MARTIN RENTAL 0 33 25:58.552 43.471 12 1 Volta 1.136 43.540 60,040
23 003 EDSON MOREIRA RENTAL ADV 0 32 26:00.511 44.227 23 2 Voltas 1 Volta 44.300 59,014
24 007 MARCELO LIMA RENTAL 0 32 26:09.637 44.492 17 2 Voltas 9.126 44.664 58,662
25 039 RAFAEL AMARAL RENTAL 0 31 26:10.518 44.908 20 3 Voltas 1 Volta 45.030 58,119
Gerada em 06/06/2019 22:37